• Join FlightAware (Why Join?)
  • Login
  • US Flag 
08:10AM EDT


 

Airport Tracker/Info


-or-


 

Live Flight TrackerFlight Track Log ✈ TPJ177 ✈ 01-Sep-2013 ✈ KSAC - KSDL

Flight Track Log - Related Links

Times and Time Zones

All times are in EDT time to prevent confusion due to time zone crossing. See the TPJ177 flight status page for this flight to view local times or setup timezone preferences in your user account.

Time Position Orientation Groundspeed Altitude Reporting Facility
EDT Latitude Longitude Course Direction KTS MPH feet Rate Location/Type
08:52PM 38.4833 -121.4000 90° East 170 196 3,900  Level Northern Cal TRACON
08:53PM 38.4672 -121.3586 116° Southeast 169 194 5,600 1,800 Climbing Oakland Center
08:54PM 38.4536 -121.3008 107° East 171 197 7,500 1,800 Climbing Oakland Center
08:55PM 38.4414 -121.2450 106° East 165 190 9,300 1,680 Climbing Oakland Center
08:56PM 38.3056 -121.0270 106° East  Level Estimated
08:56PM 38.4261 -121.1853 108° East 176 203 11,000  Level Oakland Center
08:57PM 38.4103 -121.1181 107° East 179 206 12,800 1,560 Climbing Oakland Center
08:58PM 38.3969 -121.0569 106° East 179 206 14,200 1,440 Climbing Oakland Center
08:59PM 38.3817 -120.9917 107° East 188 216 15,800 1,320 Climbing Oakland Center
09:00PM 38.3661 -120.9272 107° East 190 219 17,000 1,200 Climbing Oakland Center
09:01PM 38.3492 -120.8583 107° East 200 230 18,300 1,200 Climbing Oakland Center
09:02PM 38.3328 -120.7900 107° East 202 232 19,500 1,200 Climbing Oakland Center
09:03PM 38.3122 -120.7058 107° East 206 237 20,800 1,200 Climbing Oakland Center
09:04PM 38.2947 -120.6353 108° East 209 241 22,000 1,080 Climbing Oakland Center
09:05PM 38.2775 -120.5633 107° East 212 244 23,000 480 Climbing Oakland Center
09:06PM 38.2583 -120.4878 108° East 226 260 23,000  Level Oakland Center
09:07PM 38.2389 -120.4044 107° East 245 282 23,000  Level Oakland Center
09:08PM 38.2183 -120.3167 107° East 258 297 23,000  Level Oakland Center
09:09PM 38.1958 -120.2289 108° East 261 300 23,000  Level Oakland Center
09:10PM 38.1728 -120.1403 108° East 263 303 23,000  Level Oakland Center
09:11PM 38.1406 -120.0569 116° Southeast 263 303 23,000  Level Oakland Center
09:12PM 38.1078 -119.9736 117° Southeast 264 304 23,000  Level Oakland Center
09:13PM 38.0761 -119.8908 116° Southeast 262 302 23,000  Level Oakland Center
09:14PM 38.0450 -119.8069 115° Southeast 264 304 23,000  Level Oakland Center
09:15PM 38.0106 -119.7253 118° Southeast 262 302 23,000  Level Oakland Center
09:16PM 37.9714 -119.6264 117° Southeast 263 303 23,000  Level Oakland Center
09:17PM 37.9406 -119.5453 116° Southeast 257 296 23,000  Level Oakland Center
09:18PM 37.9083 -119.4650 117° Southeast 257 296 23,000  Level Oakland Center
09:19PM 37.8783 -119.3819 115° Southeast 258 297 23,000  Level Oakland Center
09:20PM 37.8456 -119.2997 117° Southeast 261 300 23,000  Level Oakland Center
09:21PM 37.8125 -119.2172 117° Southeast 262 302 23,000  Level Oakland Center
09:22PM 37.7806 -119.1367 117° Southeast 259 298 23,000  Level Oakland Center
09:23PM 37.7478 -119.0547 117° Southeast 261 300 23,000  Level Oakland Center
09:24PM 37.7153 -118.9722 116° Southeast 262 302 23,000  Level Oakland Center
09:25PM 37.6825 -118.8900 117° Southeast 262 302 23,000  Level Oakland Center
09:26PM 37.6511 -118.8075 116° Southeast 261 300 23,000  Level Oakland Center
09:27PM 37.6172 -118.7228 117° Southeast 259 298 23,000  Level Oakland Center
09:28PM 37.5847 -118.6422 117° Southeast 259 298 23,000  Level Oakland Center
09:29PM 37.5517 -118.5608 117° Southeast 261 300 23,000  Level Oakland Center
09:30PM 37.5131 -118.4653 117° Southeast 257 296 23,000  Level Oakland Center
09:31PM 37.4800 -118.3842 117° Southeast 260 299 23,000  Level Oakland Center
09:32PM 37.4386 -118.3111 125° Southeast 259 298 23,000  Level Oakland Center
09:33PM 37.3958 -118.2411 128° Southeast 255 293 23,000  Level Oakland Center
09:35PM 37.3506 -118.1719 129° Southeast 256 295 23,000  Level Oakland Center
09:36PM 37.2978 -118.1169 140° Southeast 251 289 23,000  Level Oakland Center
09:37PM 37.2589 -118.0408 123° Southeast 270 311 23,000  Level Oakland Center
09:38PM 37.2322 -117.9603 113° Southeast 257 296 23,000  Level Oakland Center
09:39PM 37.2022 -117.8764 114° Southeast 261 300 23,000  Level Oakland Center
09:40PM 37.1728 -117.7928 114° Southeast 263 303 23,000  Level Oakland Center
09:41PM 37.1436 -117.7092 114° Southeast 263 303 23,000  Level Oakland Center
09:42PM 37.1072 -117.6056 114° Southeast 268 308 23,000  Level Oakland Center
09:42PM 37.0958 -117.5739 114° Southeast 265 305 23,000  Level Los Angeles Center
09:43PM 37.0661 -117.4881 113° Southeast 266 306 23,000  Level Los Angeles Center
09:44PM 37.0306 -117.3872 114° Southeast 265 305 23,000  Level Los Angeles Center
09:45PM 36.9986 -117.2989 114° Southeast 271 312 23,000  Level Los Angeles Center
09:46PM 36.9689 -117.2136 114° Southeast 271 312 23,000  Level Los Angeles Center
09:47PM 36.9389 -117.1308 114° Southeast 264 304 23,000  Level Los Angeles Center
09:48PM 36.9086 -117.0453 114° Southeast 267 307 23,000  Level Los Angeles Center
09:49PM 36.8786 -116.9631 114° Southeast 262 302 23,000  Level Los Angeles Center
09:50PM 36.8494 -116.8797 114° Southeast 262 302 23,000  Level Los Angeles Center
09:51PM 36.8192 -116.7969 115° Southeast 262 302 23,000  Level Los Angeles Center
09:52PM 36.7803 -116.6994 116° Southeast 261 300 23,000  Level Los Angeles Center
09:53PM 36.7439 -116.6233 121° Southeast 258 297 23,000  Level Los Angeles Center
09:55PM 36.7081 -116.5450 120° Southeast 259 298 23,000  Level Los Angeles Center
09:56PM 36.6714 -116.4669 120° Southeast 261 300 23,000  Level Los Angeles Center
09:57PM 36.6356 -116.3892 120° Southeast 258 297 23,000  Level Los Angeles Center
09:58PM 36.5989 -116.3103 120° Southeast 262 302 23,000  Level Los Angeles Center
09:59PM 36.5631 -116.2344 120° Southeast 256 295 23,000  Level Los Angeles Center
10:00PM 36.5219 -116.1475 120° Southeast 266 306 23,000  Level Los Angeles Center
10:01PM 36.4831 -116.0647 120° Southeast 259 298 23,000  Level Los Angeles Center
10:02PM 36.4475 -115.9881 120° Southeast 258 297 23,000  Level Los Angeles Center
10:03PM 36.4114 -115.9114 120° Southeast 259 298 23,000  Level Los Angeles Center
10:04PM 36.3742 -115.8356 121° Southeast 250 288 23,000  Level Los Angeles Center
10:05PM 36.3372 -115.7581 121° Southeast 259 298 23,000  Level Los Angeles Center
10:06PM 36.3000 -115.6831 122° Southeast 260 299 23,000  Level Los Angeles Center
10:07PM 36.2575 -115.5931 120° Southeast 267 307 23,000  Level Los Angeles Center
10:08PM 36.2208 -115.5144 120° Southeast 260 299 23,000  Level Los Angeles Center
10:09PM 36.1850 -115.4389 120° Southeast 257 296 23,000  Level Los Angeles Center
10:10PM 36.1486 -115.3631 121° Southeast 258 297 23,000  Level Los Angeles Center
10:11PM 36.1122 -115.2875 121° Southeast 256 295 23,000  Level Los Angeles Center
10:12PM 36.0747 -115.2106 121° Southeast 260 299 23,000  Level Los Angeles Center
10:13PM 36.0369 -115.1336 121° Southeast 263 303 23,000  Level Los Angeles Center
10:14PM 36.0000 -115.0583 121° Southeast 258 297 23,000  Level Los Angeles Center
10:15PM 35.9631 -114.9811 121° Southeast 259 298 23,000  Level Los Angeles Center
10:16PM 35.9181 -114.8903 121° Southeast 259 298 23,000  Level Los Angeles Center
10:17PM 35.8808 -114.8125 121° Southeast 263 303 23,000  Level Los Angeles Center
10:18PM 35.8444 -114.7375 121° Southeast 256 295 23,000  Level Los Angeles Center
10:19PM 35.8064 -114.6606 121° Southeast 260 299 23,000  Level Los Angeles Center
10:20PM 35.7683 -114.5836 121° Southeast 263 303 23,000  Level Los Angeles Center
10:21PM 35.7311 -114.5072 121° Southeast 261 300 23,000  Level Los Angeles Center
10:22PM 35.6933 -114.4331 122° Southeast 257 296 23,000  Level Los Angeles Center
10:23PM 35.6556 -114.3564 121° Southeast 260 299 23,000  Level Los Angeles Center
10:24PM 35.6194 -114.2814 121° Southeast 256 295 23,000  Level Los Angeles Center
10:25PM 35.5811 -114.2056 122° Southeast 259 298 23,000  Level Los Angeles Center
10:26PM 35.5372 -114.1164 121° Southeast 257 296 23,000  Level Los Angeles Center
10:27PM 35.4994 -114.0419 122° Southeast 258 297 23,000  Level Los Angeles Center
10:28PM 35.4639 -113.9678 120° Southeast 256 295 23,000  Level Los Angeles Center
10:29PM 35.4258 -113.8933 122° Southeast 258 297 23,000  Level Los Angeles Center
10:30PM 35.3889 -113.8203 122° Southeast 255 293 23,000  Level Los Angeles Center
10:31PM 35.3522 -113.7464 121° Southeast 256 295 23,000  Level Los Angeles Center
10:32PM 35.3147 -113.6739 122° Southeast 255 293 23,000  Level Los Angeles Center
10:33PM 35.2789 -113.5997 121° Southeast 254 292 23,000  Level Los Angeles Center
10:34PM 35.2339 -113.5131 122° Southeast 255 293 23,000  Level Los Angeles Center
10:35PM 35.1972 -113.4403 122° Southeast 255 293 23,000  Level Los Angeles Center
10:36PM 35.1606 -113.3683 122° Southeast 253 291 23,000  Level Los Angeles Center
10:37PM 35.1242 -113.2956 121° Southeast 254 292 23,000  Level Los Angeles Center
10:38PM 35.0839 -113.2253 125° Southeast 254 292 23,000  Level Albuquerque Center
10:39PM 35.0394 -113.1608 130° Southeast 252 290 23,000  Level Albuquerque Center
10:40PM 34.9964 -113.0956 129° Southeast 250 288 23,000  Level Albuquerque Center
10:41PM 34.9522 -113.0294 129° Southeast 253 291 23,000  Level Albuquerque Center
10:42PM 34.9089 -112.9642 129° Southeast 252 290 23,000  Level Albuquerque Center
10:43PM 34.8658 -112.8997 129° Southeast 249 287 23,000  Level Albuquerque Center
10:44PM 34.8136 -112.8211 129° Southeast 250 288 23,000  Level Albuquerque Center
10:46PM 34.7697 -112.7564 130° Southeast 251 289 23,000  Level Albuquerque Center
10:47PM 34.7258 -112.6919 130° Southeast 250 288 23,000  Level Albuquerque Center
10:48PM 34.6825 -112.6283 130° Southeast 247 284 23,000  Level Albuquerque Center
10:49PM 34.6389 -112.5642 130° Southeast 248 285 23,000 -120 Level Albuquerque Center
10:50PM 34.5964 -112.5003 129° Southeast 246 283 22,800 -900 Descending Albuquerque Center
10:51PM 34.5483 -112.4311 130° Southeast 265 305 21,300 -1,440 Descending Albuquerque Center
10:52PM 34.4994 -112.3578 129° Southeast 279 321 19,900 -1,440 Descending Albuquerque Center
10:53PM 34.4508 -112.2875 130° Southeast 280 322 18,400 -1,440 Descending Albuquerque Center
10:54PM 34.4011 -112.2144 130° Southeast 281 323 17,000 -1,500 Descending Albuquerque Center
10:55PM 34.3481 -112.1389 130° Southeast 289 333 15,400 -1,620 Descending Albuquerque Center
10:56PM 34.2950 -112.0611 130° Southeast 296 341 13,800 -1,560 Descending Albuquerque Center
10:57PM 34.2419 -111.9850 130° Southeast 297 342 12,300 -1,380 Descending Albuquerque Center
10:58PM 34.1594 -111.9319 152° Southeast 285 328 11,000 -1,200 Descending Albuquerque Center
10:59PM 34.0856 -111.9281 178° South 270 311 9,900 -1,320 Descending Albuquerque Center
11:00PM 34.0117 -111.9331 183° South 271 312 8,400 -1,080 Descending Albuquerque Center
11:01PM 33.9394 -111.9358 182° South 265 305 7,800 -600 Descending Albuquerque Center
11:02PM 33.8678 -111.9253 173° South 264 304 7,200 -1,200 Descending Albuquerque Center
11:03PM 33.7992 -111.9075 168° South 256 295 5,400 -1,740 Descending Albuquerque Center
11:04PM 33.7336 -111.8947 171° South 242 278 3,700 -1,440 Descending Albuquerque Center
11:05PM 33.6764 -111.8872 174° South 220 253 2,600 -900 Descending Albuquerque Center
11:06PM 33.6406 -111.8878 181° South 163 188 1,900 -600 Descending Albuquerque Center
11:07PM 33.6203 -111.9119 225° Southwest 132 152 1,500 -420 Descending Albuquerque Center